createdAt,value
2018-09-05T05:28:23.050Z,14.13
2018-09-05T05:30:51.240Z,12.10
2018-09-05T05:33:19.407Z,13.00
2018-09-05T05:35:47.612Z,13.93
2018-09-05T05:38:15.773Z,12.73
2018-09-05T05:40:43.940Z,11.77
2018-09-05T05:43:12.104Z,14.73
2018-09-05T05:45:40.276Z,14.40
2018-09-05T05:48:08.464Z,11.47
2018-09-05T05:50:36.648Z,13.67
2018-09-05T05:53:06.816Z,12.50
2018-09-05T05:55:35.089Z,11.70
2018-09-05T05:58:03.267Z,13.10
2018-09-05T06:00:31.480Z,12.60
2018-09-05T06:02:59.659Z,16.90
2018-09-05T06:05:27.844Z,10.23
2018-09-05T06:07:56.005Z,13.83
2018-09-05T06:10:26.062Z,11.03
2018-09-05T06:12:55.764Z,10.23
2018-09-05T06:15:24.508Z,8.90
2018-09-05T06:17:52.724Z,9.73
2018-09-05T06:20:20.898Z,10.77
2018-09-05T06:22:49.508Z,11.77
2018-09-05T06:25:17.848Z,11.70
2018-09-05T06:27:46.117Z,10.80
2018-09-05T06:30:14.335Z,9.13
2018-09-05T06:32:42.506Z,11.40
2018-09-05T06:35:10.704Z,8.93
2018-09-05T06:37:38.912Z,8.93
2018-09-05T06:40:07.577Z,9.33
2018-09-05T06:42:36.941Z,7.63
2018-09-05T06:45:06.170Z,6.63
2018-09-05T06:47:34.641Z,8.10
2018-09-05T06:50:02.884Z,7.80
2018-09-05T06:52:31.084Z,7.33
2018-09-05T06:54:59.336Z,7.10
2018-09-05T06:57:27.582Z,12.40
2018-09-05T06:59:55.851Z,9.30
2018-09-05T07:02:24.397Z,8.13
2018-09-05T07:04:52.643Z,7.87
2018-09-05T07:07:20.865Z,12.60
2018-09-05T07:09:49.536Z,8.90
2018-09-05T07:12:18.603Z,7.27
2018-09-05T07:14:47.387Z,8.07
2018-09-05T07:17:15.653Z,7.20
2018-09-05T07:19:43.842Z,7.20
2018-09-05T07:22:12.044Z,7.70
2018-09-05T07:24:40.245Z,6.70
2018-09-05T07:27:08.509Z,8.13
2018-09-05T07:29:36.769Z,6.13
2018-09-05T07:32:05.009Z,8.00
2018-09-05T07:34:33.179Z,7.37
2018-09-05T07:37:01.452Z,6.27
2018-09-05T07:39:29.647Z,9.00
2018-09-05T07:41:57.849Z,6.07
2018-09-05T07:44:26.056Z,8.07
2018-09-05T07:46:54.257Z,6.70
2018-09-05T07:49:22.437Z,8.17
2018-09-05T07:51:50.699Z,7.50
2018-09-05T07:54:18.881Z,7.90
2018-09-05T07:56:47.081Z,11.40
2018-09-05T07:59:15.306Z,5.73
2018-09-05T08:01:43.477Z,7.10
2018-09-05T08:04:11.724Z,6.00
2018-09-05T08:06:39.940Z,8.83
2018-09-05T08:09:09.059Z,7.17
2018-09-05T08:11:37.350Z,7.63
2018-09-05T08:14:05.922Z,8.70
2018-09-05T08:16:34.136Z,7.03
2018-09-05T08:19:02.361Z,10.10
2018-09-05T08:21:30.564Z,7.40
2018-09-05T08:23:58.848Z,17.23
2018-09-05T08:26:27.069Z,8.33
2018-09-05T08:28:55.333Z,6.37
2018-09-05T08:31:23.527Z,8.80
2018-09-05T08:33:51.872Z,9.37
2018-09-05T08:36:20.312Z,8.10
2018-09-05T08:38:48.382Z,9.07
2018-09-05T08:41:16.614Z,6.67
2018-09-05T08:43:46.501Z,9.80
2018-09-05T08:46:14.770Z,8.23
2018-09-05T08:48:43.139Z,7.40
2018-09-05T08:51:11.307Z,8.77
2018-09-05T08:53:39.769Z,8.17
2018-09-05T08:56:08.008Z,7.77
2018-09-05T08:58:36.255Z,8.03
2018-09-05T09:01:04.812Z,9.00
2018-09-05T09:03:33.023Z,8.90
2018-09-05T09:06:03.930Z,10.97
2018-09-05T09:08:32.331Z,8.33
2018-09-05T09:11:00.513Z,8.77
2018-09-05T09:13:28.692Z,10.87
2018-09-05T09:15:56.868Z,13.57
2018-09-05T09:18:25.161Z,10.33
2018-09-05T09:20:53.524Z,11.60
2018-09-05T09:23:21.799Z,11.30
2018-09-05T09:25:50.000Z,9.10
2018-09-05T09:28:18.227Z,13.30
2018-09-05T09:30:46.462Z,12.20
2018-09-05T09:33:14.638Z,9.23
2018-09-05T09:35:42.854Z,12.87
2018-09-05T09:38:11.047Z,9.57
2018-09-05T09:40:39.214Z,9.30
2018-09-05T09:43:07.400Z,11.43
2018-09-05T09:45:35.596Z,12.53
2018-09-05T09:48:03.777Z,9.00
2018-09-05T09:50:32.002Z,11.93
2018-09-05T09:53:00.200Z,9.80
2018-09-05T09:55:28.431Z,12.50
2018-09-05T09:57:56.616Z,11.27
2018-09-05T10:00:30.054Z,11.70
2018-09-05T10:03:03.657Z,15.13
2018-09-05T10:05:37.180Z,14.43
2018-09-05T10:08:14.689Z,15.17
2018-09-05T10:10:48.178Z,11.27
2018-09-05T10:13:21.789Z,14.60
2018-09-05T10:15:55.229Z,16.63
2018-09-05T10:18:27.264Z,12.13
2018-09-05T10:20:56.301Z,13.03
2018-09-05T10:23:24.587Z,11.80
2018-09-05T10:25:53.891Z,10.10
2018-09-05T10:28:22.183Z,13.33
2018-09-05T10:30:50.811Z,16.47
2018-09-05T10:33:19.286Z,14.73
2018-09-05T10:35:48.109Z,13.23
2018-09-05T10:38:16.369Z,15.30
2018-09-05T10:40:44.792Z,14.60
2018-09-05T10:43:12.971Z,15.10
2018-09-05T10:45:41.154Z,13.90
2018-09-05T10:48:09.406Z,12.10
2018-09-05T10:50:37.660Z,14.43
2018-09-05T10:53:06.043Z,16.00
2018-09-05T10:55:34.247Z,20.50
2018-09-05T10:58:02.482Z,16.23
2018-09-05T11:00:30.641Z,16.10
2018-09-05T11:02:58.835Z,16.20
2018-09-05T11:05:27.009Z,15.23
2018-09-05T11:07:55.159Z,13.53
2018-09-05T11:10:23.369Z,18.07
2018-09-05T11:12:51.508Z,16.50
2018-09-05T11:15:19.696Z,17.57
2018-09-05T11:17:47.857Z,16.10
2018-09-05T11:20:16.056Z,16.80
2018-09-05T11:22:44.241Z,20.87
2018-09-05T11:25:12.454Z,20.70
2018-09-05T11:27:40.772Z,18.70
2018-09-05T11:30:08.983Z,16.40
2018-09-05T11:32:37.175Z,18.13
2018-09-05T11:35:05.360Z,20.93
2018-09-05T11:37:33.924Z,19.43
2018-09-05T11:40:02.128Z,19.10
2018-09-05T11:42:30.292Z,18.90
2018-09-05T11:44:58.502Z,20.17
2018-09-05T11:47:26.647Z,19.23
2018-09-05T11:49:54.848Z,20.63
2018-09-05T11:52:23.024Z,18.10
2018-09-05T11:54:51.266Z,22.73
2018-09-05T11:57:19.459Z,21.83
2018-09-05T11:59:47.622Z,18.87
2018-09-05T12:02:15.921Z,18.10
2018-09-05T12:04:44.067Z,19.87
2018-09-05T12:07:13.077Z,22.23
2018-09-05T12:09:43.416Z,23.10
2018-09-05T12:12:11.802Z,18.87
2018-09-05T12:14:39.958Z,21.30
2018-09-05T12:17:08.477Z,19.50
2018-09-05T12:19:36.663Z,18.10
2018-09-05T12:22:04.903Z,20.37
2018-09-05T12:24:33.116Z,21.30
2018-09-05T12:27:01.357Z,17.33
2018-09-05T12:29:31.064Z,17.47
2018-09-05T12:31:59.245Z,16.73
2018-09-05T12:34:27.441Z,17.63
2018-09-05T12:36:55.612Z,18.83
2018-09-05T12:39:23.766Z,19.07
2018-09-05T12:41:51.939Z,15.80
2018-09-05T12:44:20.093Z,19.83
2018-09-05T12:46:48.298Z,19.37
2018-09-05T12:49:16.509Z,21.33
2018-09-05T12:51:44.729Z,18.70
2018-09-05T12:54:12.985Z,16.57
2018-09-05T12:56:41.161Z,18.00
2018-09-05T12:59:09.424Z,20.07
2018-09-05T13:01:37.541Z,19.80
2018-09-05T13:04:05.807Z,20.90
2018-09-05T13:06:34.143Z,22.87
2018-09-05T13:09:02.392Z,16.60
2018-09-05T13:11:30.633Z,19.33
2018-09-05T13:13:58.803Z,20.47
2018-09-05T13:16:26.973Z,20.57
2018-09-05T13:18:55.180Z,20.50
2018-09-05T13:21:23.377Z,24.90
2018-09-05T13:23:51.577Z,20.57
2018-09-05T13:26:19.770Z,22.30
2018-09-05T13:28:47.972Z,17.40
2018-09-05T13:31:16.231Z,20.43
2018-09-05T13:33:44.440Z,19.97
2018-09-05T13:36:12.749Z,19.90
2018-09-05T13:38:40.956Z,19.20
2018-09-05T13:41:09.164Z,21.93
2018-09-05T13:43:37.349Z,21.50
2018-09-05T13:46:05.515Z,20.60
2018-09-05T13:48:33.720Z,21.70
2018-09-05T13:51:02.011Z,19.83
2018-09-05T13:53:30.677Z,19.83
2018-09-05T13:55:58.965Z,21.27
2018-09-05T13:58:27.237Z,19.07
2018-09-05T14:00:55.442Z,23.20
2018-09-05T14:03:23.613Z,23.67
2018-09-05T14:05:51.786Z,21.27
2018-09-05T14:08:19.995Z,22.53
2018-09-05T14:10:48.178Z,25.37
2018-09-05T14:13:16.329Z,24.57
2018-09-05T14:15:44.486Z,21.70
2018-09-05T14:18:12.686Z,25.20
2018-09-05T14:20:40.952Z,26.57
2018-09-05T14:23:09.065Z,25.43
2018-09-05T14:25:37.254Z,23.30
2018-09-05T14:28:05.658Z,28.13
2018-09-05T14:30:33.820Z,22.90
2018-09-05T14:33:02.015Z,25.63
2018-09-05T14:35:30.173Z,27.23
2018-09-05T14:37:58.335Z,26.23
2018-09-05T14:40:40.893Z,28.67
2018-09-05T14:49:00.359Z,24.67
2018-09-05T14:51:28.544Z,22.67
2018-09-05T14:53:56.735Z,25.50
2018-09-05T14:56:24.889Z,21.70
2018-09-05T14:58:53.061Z,23.43
2018-09-05T15:01:21.220Z,24.03
2018-09-05T15:03:49.439Z,29.43
2018-09-05T15:06:17.656Z,23.53
2018-09-05T15:08:45.931Z,27.13
2018-09-05T15:11:14.121Z,25.47
2018-09-05T15:13:42.321Z,24.73
2018-09-05T15:16:10.505Z,31.33
2018-09-05T15:18:39.000Z,25.77
2018-09-05T15:21:07.484Z,25.20
2018-09-05T15:23:35.667Z,25.60
2018-09-05T15:26:03.986Z,24.70
2018-09-05T15:28:32.158Z,27.30
2018-09-05T15:31:00.356Z,26.23
2018-09-05T15:36:20.927Z,28.63
2018-09-05T15:38:49.113Z,28.83
2018-09-05T15:41:17.248Z,28.93
2018-09-05T15:43:45.436Z,25.47
2018-09-05T15:46:13.589Z,27.80
2018-09-05T15:48:41.771Z,27.03
2018-09-05T15:51:09.917Z,29.83
2018-09-05T15:53:38.113Z,27.20
2018-09-05T15:56:06.369Z,32.30
2018-09-05T15:58:34.562Z,29.07
2018-09-05T16:01:02.770Z,28.33
2018-09-05T16:03:31.041Z,29.97
2018-09-05T16:05:59.192Z,30.60
2018-09-05T16:08:27.376Z,32.43
2018-09-05T16:10:55.543Z,29.60
2018-09-05T16:13:23.725Z,30.43
2018-09-05T16:15:52.294Z,26.97
2018-09-05T16:18:20.473Z,32.30
2018-09-05T16:20:48.688Z,31.70
2018-09-05T16:23:16.867Z,31.90
2018-09-05T16:25:45.038Z,32.50
2018-09-05T16:28:13.241Z,31.93
2018-09-05T16:30:41.504Z,33.17
2018-09-05T16:33:09.684Z,32.40
2018-09-05T16:35:37.957Z,31.00
2018-09-05T16:38:06.105Z,36.40
2018-09-05T16:40:34.320Z,28.37
2018-09-05T16:43:02.521Z,29.50
2018-09-05T16:45:30.740Z,25.93
2018-09-05T16:47:58.910Z,29.43
2018-09-05T16:50:27.093Z,30.10
2018-09-05T16:52:55.252Z,30.27
2018-09-05T16:55:23.444Z,33.30
2018-09-05T16:57:51.620Z,31.73
2018-09-05T17:00:19.800Z,30.17
2018-09-05T17:02:47.989Z,35.37
2018-09-05T17:05:16.192Z,32.27
2018-09-05T17:07:44.376Z,34.13
2018-09-05T17:10:12.577Z,34.73
2018-09-05T17:12:40.746Z,36.87
2018-09-05T17:15:08.974Z,27.73
2018-09-05T17:17:37.126Z,30.13
2018-09-05T17:20:05.392Z,34.40
2018-09-05T17:22:33.661Z,33.60
2018-09-05T17:25:01.881Z,37.83
2018-09-05T17:27:31.166Z,29.13
2018-09-05T17:29:59.391Z,31.60
2018-09-05T17:32:27.619Z,27.00
2018-09-05T17:34:55.804Z,33.90
2018-09-05T17:37:24.001Z,34.30
2018-09-05T17:39:52.194Z,36.53
2018-09-05T17:42:20.369Z,35.73
2018-09-05T17:44:48.544Z,37.07
2018-09-05T17:47:16.709Z,39.90
2018-09-05T17:49:44.902Z,36.73
2018-09-05T17:52:13.124Z,38.70
2018-09-05T17:54:41.356Z,33.47
2018-09-05T17:57:09.567Z,37.20
2018-09-05T17:59:37.836Z,36.27
2018-09-05T18:02:06.021Z,41.60
2018-09-05T18:04:34.220Z,34.97
2018-09-05T18:07:02.421Z,38.50
2018-09-05T18:09:30.625Z,43.27
2018-09-05T18:11:58.882Z,51.53
2018-09-05T18:14:27.159Z,56.67
2018-09-05T18:16:55.432Z,40.43
2018-09-05T18:19:24.075Z,38.37
2018-09-05T18:21:52.436Z,43.23
2018-09-05T18:24:20.994Z,39.53
2018-09-05T18:26:49.568Z,41.27
2018-09-05T18:29:18.268Z,41.77
2018-09-05T18:31:48.085Z,39.00
2018-09-05T18:34:16.540Z,43.50
2018-09-05T18:36:45.052Z,39.40
2018-09-05T18:39:22.593Z,38.30
